createdAt,value
2023-03-29T00:00:15.745Z,3.37
2023-03-29T00:02:48.178Z,2.90
2023-03-29T00:05:16.887Z,2.60
2023-03-29T00:07:44.348Z,2.70
2023-03-29T00:10:13.696Z,2.90
2023-03-29T00:12:41.643Z,2.90
2023-03-29T00:15:09.532Z,2.53
2023-03-29T00:17:36.975Z,2.70
2023-03-29T00:20:07.246Z,2.77
2023-03-29T00:22:34.649Z,2.60
2023-03-29T00:25:02.062Z,2.83
2023-03-29T00:27:30.799Z,2.57
2023-03-29T00:29:58.230Z,2.33
2023-03-29T00:32:26.048Z,2.40
2023-03-29T00:34:54.493Z,2.30
2023-03-29T00:37:22.472Z,2.20
2023-03-29T00:39:49.866Z,2.10
2023-03-29T00:42:17.784Z,2.20
2023-03-29T00:44:58.248Z,2.30
2023-03-29T00:47:27.244Z,1.97
2023-03-29T00:49:55.313Z,1.93
2023-03-29T00:52:23.418Z,2.03
2023-03-29T00:54:53.796Z,2.00
2023-03-29T00:57:21.703Z,2.10
2023-03-29T00:59:49.476Z,2.10
2023-03-29T01:02:22.031Z,1.70
2023-03-29T01:04:52.251Z,1.77
2023-03-29T01:07:22.772Z,1.60
2023-03-29T01:09:54.178Z,1.70
2023-03-29T01:12:23.570Z,1.50
2023-03-29T01:14:52.303Z,1.40
2023-03-29T01:17:21.911Z,1.30
2023-03-29T01:19:51.748Z,1.20
2023-03-29T01:22:25.852Z,1.20
2023-03-29T01:24:59.669Z,1.70
2023-03-29T01:27:40.172Z,2.20
2023-03-29T01:30:10.285Z,3.30
2023-03-29T01:32:41.226Z,3.00
2023-03-29T01:35:12.396Z,5.17
2023-03-29T01:37:42.425Z,3.43
2023-03-29T01:40:10.347Z,3.80
2023-03-29T01:42:43.767Z,3.20
2023-03-29T01:45:14.668Z,2.80
2023-03-29T01:47:47.015Z,2.50
2023-03-29T01:50:16.669Z,2.40
2023-03-29T01:52:46.406Z,2.73
2023-03-29T01:55:17.270Z,2.90
2023-03-29T01:57:47.758Z,3.17
2023-03-29T02:00:20.927Z,3.63
2023-03-29T02:02:49.114Z,3.40
2023-03-29T02:05:17.397Z,3.23
2023-03-29T02:07:46.939Z,3.17
2023-03-29T02:10:16.312Z,3.00
2023-03-29T02:12:43.747Z,2.97
2023-03-29T02:15:14.774Z,2.60
2023-03-29T02:17:43.798Z,2.80
2023-03-29T02:20:14.591Z,2.57
2023-03-29T02:22:46.333Z,2.90
2023-03-29T02:25:16.043Z,2.97
2023-03-29T02:27:43.520Z,2.83
2023-03-29T02:30:11.967Z,2.80
2023-03-29T02:32:44.180Z,3.13
2023-03-29T02:35:13.931Z,3.20
2023-03-29T02:37:43.015Z,3.33
2023-03-29T02:40:13.091Z,3.17
2023-03-29T02:42:40.996Z,3.23
2023-03-29T02:45:09.540Z,3.10
2023-03-29T02:47:39.347Z,2.87
2023-03-29T02:50:09.534Z,3.03
2023-03-29T02:52:40.145Z,2.77
2023-03-29T02:55:09.803Z,3.10
2023-03-29T02:57:39.310Z,2.77
2023-03-29T03:00:09.481Z,2.50
2023-03-29T03:02:37.498Z,2.73
2023-03-29T03:05:09.096Z,2.80
2023-03-29T03:07:37.263Z,2.63
2023-03-29T03:10:05.370Z,2.60
2023-03-29T03:12:32.849Z,2.40
2023-03-29T03:15:00.769Z,2.70
2023-03-29T03:17:28.238Z,2.47
2023-03-29T03:19:55.687Z,2.30
2023-03-29T03:22:24.779Z,2.17
2023-03-29T03:24:52.175Z,2.23
2023-03-29T03:27:19.655Z,2.73
2023-03-29T03:29:47.220Z,2.40
2023-03-29T03:32:43.530Z,2.30
2023-03-29T03:35:30.920Z,2.30
2023-03-29T03:38:00.109Z,2.40
2023-03-29T03:40:28.400Z,2.20
2023-03-29T03:42:56.108Z,2.37
2023-03-29T03:45:24.813Z,1.90
2023-03-29T03:48:14.468Z,1.87
2023-03-29T03:50:49.537Z,1.90
2023-03-29T03:53:18.509Z,1.80
2023-03-29T03:56:09.565Z,2.07
2023-03-29T03:58:52.622Z,1.60
2023-03-29T04:01:20.336Z,1.67
2023-03-29T04:03:59.402Z,1.67
2023-03-29T04:06:30.413Z,1.80
2023-03-29T04:09:17.999Z,1.80
2023-03-29T04:11:52.975Z,1.60
2023-03-29T04:14:20.519Z,1.83
2023-03-29T04:17:06.711Z,1.63
2023-03-29T04:19:53.880Z,1.70
2023-03-29T04:22:21.435Z,1.50
2023-03-29T04:24:51.005Z,1.90
2023-03-29T04:27:36.897Z,1.60
2023-03-29T04:30:11.372Z,1.70
2023-03-29T04:32:57.739Z,1.90
2023-03-29T04:35:25.878Z,1.93
2023-03-29T04:37:54.527Z,1.70
2023-03-29T04:40:24.619Z,1.60
2023-03-29T04:43:18.450Z,1.63
2023-03-29T04:45:56.441Z,1.60
2023-03-29T04:48:39.565Z,2.00
2023-03-29T04:51:07.309Z,1.90
2023-03-29T04:53:34.892Z,1.50
2023-03-29T04:56:03.719Z,1.77
2023-03-29T04:58:54.091Z,1.70
2023-03-29T05:01:22.454Z,1.40
2023-03-29T05:03:57.681Z,1.43
2023-03-29T05:06:30.820Z,1.80
2023-03-29T05:08:58.219Z,1.50
2023-03-29T05:11:31.624Z,1.50
2023-03-29T05:14:02.392Z,1.47
2023-03-29T05:16:32.749Z,2.10
2023-03-29T05:19:00.906Z,2.17
2023-03-29T05:21:30.773Z,3.13
2023-03-29T05:24:02.687Z,2.43
2023-03-29T05:26:51.737Z,2.40
2023-03-29T05:29:19.340Z,2.40
2023-03-29T05:31:52.762Z,2.87
2023-03-29T05:34:20.353Z,2.67
2023-03-29T05:36:52.662Z,2.77
2023-03-29T05:39:21.144Z,3.20
2023-03-29T05:41:49.924Z,3.70
2023-03-29T05:44:46.445Z,3.80
2023-03-29T05:47:19.455Z,3.30
2023-03-29T05:49:47.074Z,3.30
2023-03-29T05:52:21.286Z,3.50
2023-03-29T05:54:48.732Z,3.00
2023-03-29T05:57:18.015Z,2.80
2023-03-29T05:59:45.470Z,2.83
2023-03-29T06:02:15.941Z,2.40
2023-03-29T06:04:48.420Z,2.47
2023-03-29T06:07:36.040Z,2.30
2023-03-29T06:10:29.688Z,2.97
2023-03-29T06:13:11.881Z,3.23
2023-03-29T06:15:39.551Z,2.97
2023-03-29T06:18:10.116Z,1.60
2023-03-29T06:20:38.406Z,1.43
2023-03-29T06:23:12.062Z,1.30
2023-03-29T06:25:39.523Z,1.80
2023-03-29T06:28:07.616Z,2.17
2023-03-29T06:30:37.231Z,2.30
2023-03-29T06:33:06.286Z,2.43
2023-03-29T06:35:51.606Z,2.70
2023-03-29T06:38:28.399Z,1.87
2023-03-29T06:41:28.215Z,1.93
2023-03-29T06:44:07.545Z,2.07
2023-03-29T06:46:41.324Z,2.17
2023-03-29T06:49:09.276Z,2.13
2023-03-29T06:51:48.621Z,2.17
2023-03-29T06:54:16.082Z,2.67
2023-03-29T06:56:53.200Z,2.40
2023-03-29T06:59:22.407Z,2.20
2023-03-29T07:01:56.930Z,2.57
2023-03-29T07:04:44.392Z,2.13
2023-03-29T07:07:20.787Z,2.20
2023-03-29T07:09:55.474Z,2.17
2023-03-29T07:12:26.350Z,2.40
2023-03-29T07:14:58.756Z,2.23
2023-03-29T07:17:42.369Z,2.20
2023-03-29T07:20:13.952Z,1.93
2023-03-29T07:22:48.116Z,2.00
2023-03-29T07:25:17.064Z,1.73
2023-03-29T07:27:44.563Z,1.70
2023-03-29T07:30:13.517Z,2.13
2023-03-29T07:32:44.207Z,1.70
2023-03-29T07:35:32.588Z,1.73
2023-03-29T07:38:01.448Z,1.73
2023-03-29T07:40:29.383Z,2.20
2023-03-29T07:42:57.419Z,1.87
2023-03-29T07:45:28.686Z,2.20
2023-03-29T07:48:03.075Z,2.00
2023-03-29T07:50:47.597Z,1.67
2023-03-29T07:53:16.291Z,1.70
2023-03-29T07:55:47.663Z,1.67
2023-03-29T07:58:33.639Z,1.70
2023-03-29T08:01:01.807Z,1.87
2023-03-29T08:03:49.469Z,1.97
2023-03-29T08:06:17.713Z,1.63
2023-03-29T08:08:45.235Z,1.27
2023-03-29T08:11:15.921Z,1.30
2023-03-29T08:13:59.560Z,1.73
2023-03-29T08:16:27.220Z,1.90
2023-03-29T08:19:10.245Z,1.60
2023-03-29T08:21:56.324Z,1.30
2023-03-29T08:24:26.431Z,1.50
2023-03-29T08:26:58.132Z,1.67
2023-03-29T08:29:27.466Z,1.47
2023-03-29T08:31:56.283Z,1.10
2023-03-29T08:34:25.103Z,1.30
2023-03-29T08:36:58.439Z,1.90
2023-03-29T08:39:35.092Z,1.40
2023-03-29T08:42:34.071Z,1.33
2023-03-29T08:45:06.655Z,2.27
2023-03-29T08:47:40.567Z,1.30
2023-03-29T08:50:13.949Z,1.73
2023-03-29T08:52:47.585Z,1.33
2023-03-29T08:55:38.520Z,1.47
2023-03-29T08:58:28.982Z,1.40
2023-03-29T09:00:58.621Z,1.40
2023-03-29T09:03:29.392Z,2.10
2023-03-29T09:06:04.893Z,1.60
2023-03-29T09:08:36.661Z,1.60
2023-03-29T09:11:14.230Z,1.80
2023-03-29T09:13:46.811Z,1.30
2023-03-29T09:16:19.020Z,1.33
2023-03-29T09:18:53.370Z,1.57
2023-03-29T09:21:26.724Z,1.47
2023-03-29T09:24:02.728Z,1.50
2023-03-29T09:26:40.967Z,1.43
2023-03-29T09:29:41.880Z,1.20
2023-03-29T09:32:16.845Z,1.50
2023-03-29T09:34:45.585Z,1.30
2023-03-29T09:37:23.228Z,1.30
2023-03-29T09:39:53.032Z,1.70
2023-03-29T09:42:22.876Z,1.23
2023-03-29T09:44:52.518Z,1.30
2023-03-29T09:47:26.332Z,1.40
2023-03-29T09:49:57.394Z,1.27
2023-03-29T09:52:26.181Z,1.50
2023-03-29T09:55:05.804Z,1.23
2023-03-29T09:58:01.845Z,1.40
2023-03-29T10:00:34.060Z,1.83
2023-03-29T10:03:01.780Z,1.67
2023-03-29T10:05:39.943Z,1.20
2023-03-29T10:08:24.700Z,1.13
2023-03-29T10:10:52.133Z,1.10
2023-03-29T10:13:21.829Z,1.40
2023-03-29T10:15:58.113Z,1.40
2023-03-29T10:18:26.430Z,1.40
2023-03-29T10:20:58.987Z,1.47
2023-03-29T10:23:30.475Z,1.40
2023-03-29T10:25:58.065Z,1.40
2023-03-29T10:28:27.442Z,1.40
2023-03-29T10:30:56.210Z,1.47
2023-03-29T10:33:24.932Z,1.50
2023-03-29T10:35:52.450Z,1.60
2023-03-29T10:38:20.726Z,1.47
2023-03-29T10:40:50.121Z,1.30
2023-03-29T10:43:22.407Z,1.23
2023-03-29T10:45:50.794Z,1.50
2023-03-29T10:48:19.191Z,1.60
2023-03-29T10:50:49.758Z,1.50
2023-03-29T10:53:21.458Z,1.33
2023-03-29T10:55:53.619Z,1.70
2023-03-29T10:58:26.350Z,1.40
2023-03-29T11:00:56.839Z,1.50
2023-03-29T11:03:30.389Z,1.57
2023-03-29T11:06:00.280Z,1.70
2023-03-29T11:08:31.919Z,1.50
2023-03-29T11:11:08.754Z,2.70
2023-03-29T11:13:40.615Z,1.50
2023-03-29T11:16:11.332Z,1.70
2023-03-29T11:18:56.482Z,1.77
2023-03-29T11:21:27.914Z,2.53
2023-03-29T11:24:01.582Z,1.63
2023-03-29T11:26:35.323Z,1.90
2023-03-29T11:29:04.396Z,1.00
2023-03-29T11:31:38.383Z,1.30
2023-03-29T11:34:15.431Z,1.60
2023-03-29T11:36:50.267Z,1.50
2023-03-29T11:39:24.625Z,1.40
2023-03-29T11:41:55.049Z,1.40
2023-03-29T11:44:25.013Z,1.20
2023-03-29T11:46:55.607Z,1.40
2023-03-29T11:49:25.774Z,1.70
2023-03-29T11:51:55.437Z,1.17
2023-03-29T11:54:26.286Z,1.30
2023-03-29T11:56:56.291Z,1.40
2023-03-29T11:59:25.726Z,1.93
2023-03-29T12:01:56.196Z,1.50
2023-03-29T12:04:27.533Z,1.80
2023-03-29T12:06:58.668Z,1.33
2023-03-29T12:09:30.719Z,1.20
2023-03-29T12:12:02.937Z,1.30
2023-03-29T12:14:34.257Z,1.30
2023-03-29T12:17:03.132Z,1.30
2023-03-29T12:19:31.619Z,1.43
2023-03-29T12:22:00.368Z,1.40
2023-03-29T12:24:29.429Z,1.60
2023-03-29T12:27:04.060Z,1.40
2023-03-29T12:29:37.368Z,1.50
2023-03-29T12:32:12.998Z,2.00
2023-03-29T12:34:58.294Z,1.53
2023-03-29T12:37:59.200Z,1.50
2023-03-29T12:41:01.792Z,1.50
2023-03-29T12:44:01.933Z,1.70
2023-03-29T12:46:52.505Z,1.87
2023-03-29T12:49:27.196Z,1.43
2023-03-29T12:51:56.097Z,1.40
2023-03-29T12:54:27.503Z,1.60
2023-03-29T12:56:58.041Z,1.60
2023-03-29T12:59:27.991Z,1.43
2023-03-29T13:01:59.421Z,1.60
2023-03-29T13:04:37.175Z,1.47
2023-03-29T13:07:05.801Z,1.70
2023-03-29T13:09:36.572Z,1.87
2023-03-29T13:12:08.837Z,1.30
2023-03-29T13:14:38.298Z,1.53
2023-03-29T13:17:17.571Z,1.40
2023-03-29T13:19:48.388Z,1.60
2023-03-29T13:22:21.352Z,1.30
2023-03-29T13:24:57.524Z,1.30
2023-03-29T13:27:29.517Z,1.50
2023-03-29T13:30:02.952Z,1.37
2023-03-29T13:32:40.221Z,1.60
2023-03-29T13:35:15.560Z,1.60
2023-03-29T13:37:48.680Z,1.50
2023-03-29T13:40:28.281Z,2.07
2023-03-29T13:42:58.459Z,2.10
2023-03-29T13:45:28.086Z,1.90
2023-03-29T13:48:05.585Z,1.70
2023-03-29T13:50:38.010Z,1.60
2023-03-29T13:53:10.607Z,2.13
2023-03-29T13:55:41.832Z,1.60
2023-03-29T13:58:12.206Z,1.77
2023-03-29T14:00:44.208Z,2.00
2023-03-29T14:03:13.694Z,1.60
2023-03-29T14:05:42.932Z,1.63
2023-03-29T14:08:14.283Z,1.80
2023-03-29T14:10:42.575Z,1.60
2023-03-29T14:13:11.949Z,1.90
2023-03-29T14:15:43.460Z,1.67
2023-03-29T14:18:11.922Z,5.20
2023-03-29T14:20:39.388Z,1.70
2023-03-29T14:23:10.352Z,1.70
2023-03-29T14:25:38.447Z,1.33
2023-03-29T14:28:13.177Z,1.57
2023-03-29T14:30:46.458Z,1.77
2023-03-29T14:33:14.591Z,1.87
2023-03-29T14:35:42.273Z,1.90
2023-03-29T14:38:12.586Z,1.63
2023-03-29T14:40:40.042Z,1.80
2023-03-29T14:43:08.920Z,1.60
2023-03-29T14:45:37.249Z,1.87
2023-03-29T14:48:06.853Z,1.70
2023-03-29T14:50:34.647Z,2.27
2023-03-29T14:53:03.105Z,1.70
2023-03-29T14:55:30.932Z,1.83
2023-03-29T14:57:59.017Z,1.90
2023-03-29T15:00:28.801Z,1.60
2023-03-29T15:02:57.660Z,1.80
2023-03-29T15:05:31.602Z,1.70
2023-03-29T15:07:59.302Z,1.67
2023-03-29T15:10:27.123Z,1.93
2023-03-29T15:12:54.714Z,1.77
2023-03-29T15:15:24.386Z,1.77
2023-03-29T15:17:52.885Z,1.53
2023-03-29T15:20:23.214Z,1.60
2023-03-29T15:22:55.739Z,1.80
2023-03-29T15:25:23.572Z,2.70
2023-03-29T15:27:51.866Z,1.90
2023-03-29T15:30:19.576Z,1.60
2023-03-29T15:32:47.035Z,1.60
2023-03-29T15:35:24.532Z,1.60
2023-03-29T15:37:53.353Z,1.40
2023-03-29T15:40:24.383Z,2.33
2023-03-29T15:42:51.898Z,1.67
2023-03-29T15:45:19.597Z,1.83
2023-03-29T15:47:47.101Z,1.70
2023-03-29T15:50:15.498Z,2.27
2023-03-29T15:52:43.097Z,1.70
2023-03-29T15:55:10.655Z,1.60
2023-03-29T15:57:39.493Z,2.73
2023-03-29T16:00:08.046Z,2.23
2023-03-29T16:02:40.023Z,1.43
2023-03-29T16:05:07.818Z,1.50
2023-03-29T16:07:36.563Z,1.63
2023-03-29T16:10:04.555Z,1.80
2023-03-29T16:12:31.900Z,1.70
2023-03-29T16:15:00.709Z,2.30
2023-03-29T16:17:28.190Z,1.70
2023-03-29T16:19:55.595Z,1.80
2023-03-29T16:22:23.006Z,1.87
2023-03-29T16:24:50.396Z,1.70
2023-03-29T16:27:17.755Z,1.90
2023-03-29T16:29:45.202Z,1.87
2023-03-29T16:32:14.055Z,1.80
2023-03-29T16:34:41.988Z,1.80
2023-03-29T16:37:09.540Z,2.00
2023-03-29T16:39:37.132Z,1.90
2023-03-29T16:42:04.801Z,1.90
2023-03-29T16:44:32.210Z,2.10
2023-03-29T16:46:59.609Z,2.20
2023-03-29T16:49:28.396Z,2.47
2023-03-29T16:51:55.987Z,1.90
2023-03-29T16:54:25.741Z,2.20
2023-03-29T16:56:53.342Z,2.20
2023-03-29T16:59:20.784Z,1.93
2023-03-29T17:01:48.208Z,1.90
2023-03-29T17:04:15.925Z,1.97
2023-03-29T17:06:44.687Z,2.10
2023-03-29T17:09:12.070Z,2.03
2023-03-29T17:11:39.517Z,1.83
2023-03-29T17:14:06.959Z,2.10
2023-03-29T17:16:34.458Z,1.87
2023-03-29T17:19:01.870Z,1.90
2023-03-29T17:21:29.737Z,2.13
2023-03-29T17:23:58.448Z,2.00
2023-03-29T17:26:25.994Z,2.10
2023-03-29T17:28:53.398Z,2.00
2023-03-29T17:31:21.232Z,2.37
2023-03-29T17:33:51.789Z,2.10
2023-03-29T17:36:23.694Z,1.97
2023-03-29T17:38:51.222Z,2.17
2023-03-29T17:41:20.181Z,2.23
2023-03-29T17:43:47.754Z,2.27
2023-03-29T17:46:16.377Z,2.40
2023-03-29T17:48:43.767Z,2.20
2023-03-29T17:51:11.151Z,2.40
2023-03-29T17:53:38.529Z,2.63
2023-03-29T17:56:06.963Z,2.07
2023-03-29T17:58:35.665Z,2.80
2023-03-29T18:01:07.176Z,2.33
2023-03-29T18:03:34.614Z,2.30
2023-03-29T18:06:02.635Z,2.37
2023-03-29T18:08:30.444Z,2.43
2023-03-29T18:11:06.314Z,1.97
2023-03-29T18:13:33.729Z,2.10
2023-03-29T18:16:03.131Z,2.40
2023-03-29T18:18:30.670Z,2.27
2023-03-29T18:20:58.223Z,2.40
2023-03-29T18:23:25.758Z,2.70
2023-03-29T18:25:53.206Z,2.27
2023-03-29T18:28:20.878Z,2.40
2023-03-29T18:30:51.108Z,2.40
2023-03-29T18:33:19.844Z,2.50
2023-03-29T18:35:50.246Z,2.63
2023-03-29T18:38:17.977Z,3.13
2023-03-29T18:40:46.997Z,3.40
2023-03-29T18:43:14.381Z,3.73
2023-03-29T18:45:41.810Z,3.87
2023-03-29T18:48:09.396Z,3.20
2023-03-29T18:50:38.662Z,2.53
2023-03-29T18:53:06.631Z,3.00
2023-03-29T18:55:34.028Z,2.80
2023-03-29T18:58:01.672Z,2.80
2023-03-29T19:00:29.037Z,2.80
2023-03-29T19:02:56.563Z,2.83
2023-03-29T19:05:24.085Z,2.80
2023-03-29T19:07:52.800Z,3.10
2023-03-29T19:10:20.780Z,2.90
2023-03-29T19:12:48.450Z,2.80
2023-03-29T19:15:15.901Z,3.13
2023-03-29T19:17:43.364Z,4.03
2023-03-29T19:20:11.918Z,3.53
2023-03-29T19:22:39.541Z,3.07
2023-03-29T19:25:09.383Z,3.00
2023-03-29T19:27:36.754Z,2.40
2023-03-29T19:30:04.418Z,2.20
2023-03-29T19:32:33.656Z,2.10
2023-03-29T19:35:01.605Z,2.20
2023-03-29T19:37:29.038Z,3.03
2023-03-29T19:39:57.064Z,2.77
2023-03-29T19:42:25.863Z,2.07
2023-03-29T19:44:53.266Z,2.30
2023-03-29T19:47:20.752Z,2.07
2023-03-29T19:49:48.144Z,2.10
2023-03-29T19:52:15.546Z,3.20
2023-03-29T19:54:42.912Z,2.60
2023-03-29T19:57:10.325Z,2.30
2023-03-29T19:59:40.578Z,1.97
2023-03-29T20:02:08.370Z,2.40
2023-03-29T20:04:35.903Z,2.33
2023-03-29T20:07:03.832Z,2.30
2023-03-29T20:09:31.277Z,3.17
2023-03-29T20:11:58.670Z,1.90
2023-03-29T20:14:26.136Z,2.53
2023-03-29T20:16:55.177Z,2.50
2023-03-29T20:19:24.385Z,2.97
2023-03-29T20:21:54.954Z,2.30
2023-03-29T20:24:22.585Z,2.33
2023-03-29T20:26:50.025Z,2.20
2023-03-29T20:29:17.766Z,2.63
2023-03-29T20:31:45.233Z,2.60
2023-03-29T20:34:14.208Z,2.20
2023-03-29T20:36:41.685Z,1.87
2023-03-29T20:39:09.642Z,1.90
2023-03-29T20:41:38.321Z,2.93
2023-03-29T20:44:06.157Z,2.50
2023-03-29T20:46:34.091Z,1.93
2023-03-29T20:49:01.925Z,2.47
2023-03-29T20:51:31.847Z,2.30
2023-03-29T20:54:02.594Z,2.47
2023-03-29T20:56:30.617Z,2.70
2023-03-29T20:58:58.740Z,2.13
2023-03-29T21:01:27.857Z,2.30
2023-03-29T21:03:55.601Z,2.03
2023-03-29T21:06:24.214Z,2.10
2023-03-29T21:08:53.313Z,2.33
2023-03-29T21:11:21.155Z,2.37
2023-03-29T21:13:48.567Z,3.47
2023-03-29T21:16:15.995Z,3.40
2023-03-29T21:18:43.644Z,3.23
2023-03-29T21:21:12.094Z,2.90
2023-03-29T21:23:40.139Z,2.83
2023-03-29T21:26:09.333Z,3.10
2023-03-29T21:28:37.504Z,2.60
2023-03-29T21:31:05.642Z,2.90
2023-03-29T21:33:33.505Z,2.50
2023-03-29T21:36:01.964Z,2.60
2023-03-29T21:38:29.407Z,3.30
2023-03-29T21:40:57.987Z,2.20
2023-03-29T21:43:26.789Z,2.63
2023-03-29T21:45:54.324Z,2.90
2023-03-29T21:48:21.716Z,2.53
2023-03-29T21:50:49.554Z,2.80
2023-03-29T21:53:17.487Z,2.90
2023-03-29T21:55:44.942Z,2.90
2023-03-29T21:58:12.319Z,2.97
2023-03-29T22:00:41.513Z,2.47
2023-03-29T22:03:08.961Z,2.97
2023-03-29T22:05:36.640Z,3.00
2023-03-29T22:08:04.903Z,2.77
2023-03-29T22:10:32.922Z,2.33
2023-03-29T22:13:00.654Z,3.17
2023-03-29T22:15:35.341Z,2.60
2023-03-29T22:18:05.054Z,2.83
2023-03-29T22:20:35.447Z,2.90
2023-03-29T22:23:03.075Z,3.07
2023-03-29T22:25:30.477Z,2.43
2023-03-29T22:27:57.896Z,2.00
2023-03-29T22:30:25.323Z,2.20
2023-03-29T22:32:52.744Z,2.60
2023-03-29T22:35:21.844Z,2.70
2023-03-29T22:37:49.243Z,2.80
2023-03-29T22:40:16.662Z,2.53
2023-03-29T22:42:44.052Z,3.17
2023-03-29T22:45:11.891Z,2.90
2023-03-29T22:47:39.343Z,2.83
2023-03-29T22:50:07.388Z,3.27
2023-03-29T22:52:36.337Z,3.10
2023-03-29T22:55:03.720Z,3.00
2023-03-29T22:57:31.119Z,3.23
2023-03-29T22:59:58.504Z,3.07
2023-03-29T23:02:26.018Z,3.30
2023-03-29T23:04:53.655Z,3.33
2023-03-29T23:07:21.170Z,2.93
2023-03-29T23:09:50.448Z,3.07
2023-03-29T23:12:17.846Z,3.17
2023-03-29T23:14:45.218Z,2.83
2023-03-29T23:17:13.352Z,3.30
2023-03-29T23:19:41.527Z,2.70
2023-03-29T23:22:08.941Z,3.37
2023-03-29T23:24:36.355Z,3.30
2023-03-29T23:27:05.551Z,3.43
2023-03-29T23:29:34.415Z,3.60
2023-03-29T23:32:01.789Z,4.07
2023-03-29T23:34:29.409Z,3.57
2023-03-29T23:36:56.866Z,3.50
2023-03-29T23:39:25.017Z,3.13
2023-03-29T23:41:52.675Z,3.23
2023-03-29T23:44:21.424Z,3.63
2023-03-29T23:46:48.865Z,3.23
2023-03-29T23:49:17.101Z,2.90
2023-03-29T23:51:48.137Z,2.97
2023-03-29T23:54:17.123Z,2.50
2023-03-29T23:56:44.652Z,3.03
2023-03-29T23:59:12.038Z,3.40
